Time;durP1;ratioP1;P1;durP2;ratioP2;P2;SDS_P1;SDS_P2;PMS_P1;PMS_P2;Temp;Humidity;BMP_temperature;BMP_pressure;BME280_temperature;BME280_humidity;BME280_pressure;Samples;Min_cycle;Max_cycle;Signal;HPM_P1;HPM_P2
2024/01/20 00:02:36;;;;;;;2.63;1.97;;;-1.20;57.40;;;;;;6262488;28;20195;-65
2024/01/20 00:05:37;;;;;;;3.27;2.53;;;-1.30;57.20;;;;;;6268723;28;20309;-65
2024/01/20 00:08:38;;;;;;;4.17;2.67;;;-1.30;58.30;;;;;;6257943;28;20278;-65
2024/01/20 00:11:39;;;;;;;3.20;2.47;;;-1.30;58.70;;;;;;6267202;28;20202;-65
2024/01/20 00:14:39;;;;;;;4.60;2.63;;;-1.30;58.50;;;;;;6304095;28;20242;-65
2024/01/20 00:17:40;;;;;;;4.50;2.77;;;-1.30;57.70;;;;;;6259120;28;20192;-65
2024/01/20 00:20:42;;;;;;;5.13;3.03;;;-1.50;57.20;;;;;;6272930;28;20217;-65
2024/01/20 00:23:42;;;;;;;4.27;3.07;;;-1.50;57.50;;;;;;6258724;28;20189;-65
2024/01/20 00:26:43;;;;;;;4.80;2.83;;;-1.50;56.90;;;;;;6271339;28;20176;-65
2024/01/20 00:29:44;;;;;;;4.43;3.40;;;-1.50;55.20;;;;;;6267438;28;20292;-65
2024/01/20 00:32:45;;;;;;;4.17;3.20;;;-1.50;56.10;;;;;;6272402;28;20200;-65
2024/01/20 00:35:45;;;;;;;5.43;3.20;;;-1.50;55.40;;;;;;6270938;28;20187;-65
2024/01/20 00:38:46;;;;;;;3.23;2.50;;;-1.50;56.20;;;;;;6268466;28;20195;-65
2024/01/20 00:41:47;;;;;;;3.03;2.33;;;-1.50;55.50;;;;;;6282538;28;20212;-65
2024/01/20 00:44:47;;;;;;;4.03;2.93;;;-1.50;54.80;;;;;;6259004;28;20219;-65
2024/01/20 00:47:48;;;;;;;3.53;2.60;;;-1.50;55.90;;;;;;6284423;28;20236;-65
2024/01/20 00:50:50;;;;;;;2.80;2.43;;;-1.40;56.00;;;;;;6271089;28;20192;-65
2024/01/20 00:53:50;;;;;;;3.40;2.40;;;-1.50;55.70;;;;;;6262433;28;20231;-65
2024/01/20 00:56:51;;;;;;;2.97;2.13;;;-1.50;56.20;;;;;;6286736;28;20194;-65
2024/01/20 00:59:52;;;;;;;2.90;2.33;;;-1.50;55.50;;;;;;6269424;28;20241;-65
2024/01/20 01:02:52;;;;;;;4.00;2.10;;;-1.50;55.40;;;;;;6265352;28;20190;-65
2024/01/20 01:05:53;;;;;;;4.00;2.20;;;-1.50;55.40;;;;;;6254220;28;20206;-65
2024/01/20 01:08:54;;;;;;;2.93;2.33;;;-1.50;55.50;;;;;;6282698;28;20192;-65
2024/01/20 01:11:54;;;;;;;3.93;2.63;;;-1.40;54.70;;;;;;6265629;28;20194;-65
2024/01/20 01:14:55;;;;;;;3.00;2.70;;;-1.50;54.30;;;;;;6284383;28;20193;-65
2024/01/20 01:17:56;;;;;;;2.90;2.17;;;-1.50;53.50;;;;;;6293952;28;20183;-65
2024/01/20 01:20:57;;;;;;;3.03;2.10;;;-1.50;53.30;;;;;;6271238;28;20208;-65
2024/01/20 01:23:57;;;;;;;5.17;2.33;;;-1.50;53.60;;;;;;6261327;28;20190;-65
2024/01/20 01:26:58;;;;;;;3.77;2.40;;;-1.50;53.00;;;;;;6265279;28;20199;-65
2024/01/20 01:29:59;;;;;;;3.67;2.17;;;-1.50;53.80;;;;;;6256727;28;20200;-65
2024/01/20 01:32:59;;;;;;;3.17;2.20;;;-1.50;53.70;;;;;;6282769;28;20228;-65
2024/01/20 01:36:00;;;;;;;4.63;2.47;;;-1.50;54.90;;;;;;6265145;28;20188;-65
2024/01/20 01:39:01;;;;;;;2.70;2.43;;;-1.50;54.70;;;;;;6256087;28;20204;-65
2024/01/20 01:42:01;;;;;;;3.63;2.17;;;-1.50;55.10;;;;;;6293126;28;20238;-65
2024/01/20 01:45:02;;;;;;;3.60;2.67;;;-1.50;54.00;;;;;;6281766;28;20196;-65
2024/01/20 01:48:03;;;;;;;2.83;2.33;;;-1.50;53.10;;;;;;6267444;28;20210;-65
2024/01/20 01:51:04;;;;;;;2.33;1.90;;;-1.50;53.30;;;;;;6301109;28;20218;-65
2024/01/20 01:54:08;;;;;;;2.37;1.80;;;-1.50;52.90;;;;;;6260923;28;20192;-65
2024/01/20 01:57:10;;;;;;;2.60;2.30;;;-1.50;53.60;;;;;;6283093;28;20194;-65
2024/01/20 02:00:11;;;;;;;3.27;2.60;;;-1.60;54.20;;;;;;6281458;28;20323;-65
2024/01/20 02:03:11;;;;;;;3.13;2.27;;;-1.60;53.70;;;;;;6305216;28;20185;-65
2024/01/20 02:06:12;;;;;;;4.20;2.37;;;-1.60;53.40;;;;;;6289805;28;20193;-65
2024/01/20 02:09:13;;;;;;;2.97;2.27;;;-1.60;53.00;;;;;;6288983;28;20188;-65
2024/01/20 02:12:14;;;;;;;2.50;2.30;;;-1.60;52.70;;;;;;6266872;28;20184;-65
2024/01/20 02:15:15;;;;;;;2.30;2.07;;;-1.50;52.90;;;;;;6268454;28;20237;-65
2024/01/20 02:18:16;;;;;;;5.27;2.00;;;-1.50;53.30;;;;;;6286191;28;20180;-65
2024/01/20 02:21:17;;;;;;;3.60;2.00;;;-1.50;52.80;;;;;;6288838;28;20221;-65
2024/01/20 02:24:18;;;;;;;3.27;2.20;;;-1.50;52.40;;;;;;6285145;28;20216;-65
2024/01/20 02:27:19;;;;;;;2.33;1.90;;;-1.40;52.60;;;;;;6260697;28;20411;-65
2024/01/20 02:30:20;;;;;;;3.07;2.00;;;-1.30;51.60;;;;;;6275262;28;20190;-65
2024/01/20 02:33:21;;;;;;;2.53;2.27;;;-1.30;51.70;;;;;;6285631;28;20198;-65
2024/01/20 02:36:21;;;;;;;3.40;1.97;;;-1.30;51.60;;;;;;6262611;28;20191;-65
2024/01/20 02:39:22;;;;;;;2.67;1.63;;;-1.30;51.40;;;;;;6270979;28;20202;-65
2024/01/20 02:42:23;;;;;;;3.03;1.80;;;-1.30;51.10;;;;;;6270166;28;20195;-65
2024/01/20 02:45:23;;;;;;;2.60;1.90;;;-1.30;51.00;;;;;;6289072;28;20198;-65
2024/01/20 02:48:24;;;;;;;4.27;2.33;;;-1.30;51.10;;;;;;6269753;28;20182;-65
2024/01/20 02:51:25;;;;;;;3.47;1.80;;;-1.30;51.80;;;;;;6287770;28;20201;-65
2024/01/20 02:54:26;;;;;;;4.43;2.27;;;-1.30;51.60;;;;;;6265473;28;20204;-65
2024/01/20 02:57:26;;;;;;;2.43;1.77;;;-1.20;51.20;;;;;;6272605;28;20205;-65
2024/01/20 03:00:28;;;;;;;2.00;1.67;;;-1.30;51.50;;;;;;6257822;28;20330;-65
2024/01/20 03:03:28;;;;;;;2.07;1.77;;;-1.30;52.20;;;;;;6257179;28;20191;-65
2024/01/20 03:06:29;;;;;;;2.43;1.70;;;-1.30;52.30;;;;;;6279748;28;20212;-65
2024/01/20 03:09:30;;;;;;;3.63;1.90;;;-1.30;51.80;;;;;;6286017;28;20195;-65
2024/01/20 03:12:31;;;;;;;3.97;2.20;;;-1.30;53.10;;;;;;6264522;28;20629;-65
2024/01/20 03:15:31;;;;;;;1.57;1.47;;;-1.30;52.30;;;;;;6249742;28;20282;-65
2024/01/20 03:18:32;;;;;;;2.10;1.90;;;-1.30;52.20;;;;;;6268380;28;20607;-65
2024/01/20 03:21:33;;;;;;;3.03;1.87;;;-1.30;51.90;;;;;;6258522;28;20279;-65
2024/01/20 03:24:34;;;;;;;3.10;1.93;;;-1.30;52.30;;;;;;6278688;28;20192;-65
2024/01/20 03:27:35;;;;;;;2.17;1.90;;;-1.40;52.20;;;;;;6274863;28;20198;-65
2024/01/20 03:30:35;;;;;;;4.10;1.87;;;-1.50;52.30;;;;;;6261565;28;20203;-65
2024/01/20 03:33:36;;;;;;;2.40;1.90;;;-1.50;52.20;;;;;;6267370;28;20200;-65
2024/01/20 03:36:37;;;;;;;2.70;2.20;;;-1.40;51.80;;;;;;6263692;28;20194;-65
2024/01/20 03:39:37;;;;;;;3.90;1.97;;;-1.30;51.20;;;;;;6276415;28;20240;-65
2024/01/20 03:42:38;;;;;;;3.57;2.00;;;-1.30;50.90;;;;;;6254458;28;20195;-65
2024/01/20 03:45:41;;;;;;;2.40;1.93;;;-1.30;50.90;;;;;;6267893;28;20191;-65
2024/01/20 03:48:42;;;;;;;4.13;2.20;;;-1.30;50.90;;;;;;6285716;28;20208;-65
2024/01/20 03:51:43;;;;;;;3.10;1.90;;;-1.20;50.70;;;;;;6263242;28;20195;-65
2024/01/20 03:54:43;;;;;;;2.67;1.63;;;-1.20;50.90;;;;;;6262389;28;20221;-65
2024/01/20 03:57:44;;;;;;;2.10;1.90;;;-1.30;51.90;;;;;;6265993;28;20216;-65
2024/01/20 04:00:45;;;;;;;4.37;2.37;;;-1.30;52.00;;;;;;6264309;28;20250;-65
2024/01/20 04:03:45;;;;;;;3.03;2.20;;;-1.30;51.50;;;;;;6281051;28;20185;-65
2024/01/20 04:06:46;;;;;;;2.60;1.80;;;-1.30;51.00;;;;;;6262224;28;20191;-65
2024/01/20 04:09:47;;;;;;;3.03;1.93;;;-1.30;51.10;;;;;;6285128;28;20212;-65
2024/01/20 04:12:47;;;;;;;2.87;2.20;;;-1.30;50.90;;;;;;6284394;28;20196;-65
2024/01/20 04:15:49;;;;;;;2.03;1.83;;;-1.30;52.00;;;;;;6303441;28;20194;-65
2024/01/20 04:18:49;;;;;;;3.10;2.17;;;-1.40;52.10;;;;;;6268777;28;20201;-65
2024/01/20 04:21:50;;;;;;;2.57;1.90;;;-1.40;52.30;;;;;;6259112;28;20218;-65
2024/01/20 04:24:51;;;;;;;4.10;2.30;;;-1.30;53.10;;;;;;6280816;28;20188;-65
2024/01/20 04:27:51;;;;;;;3.57;1.83;;;-1.30;52.20;;;;;;6281039;28;20192;-65
2024/01/20 04:30:53;;;;;;;2.83;2.20;;;-1.40;52.20;;;;;;6262517;28;20200;-65
2024/01/20 04:33:53;;;;;;;2.87;1.90;;;-1.40;52.20;;;;;;6264888;28;20253;-65
2024/01/20 04:36:54;;;;;;;2.70;1.73;;;-1.40;52.50;;;;;;6262299;28;20192;-65
2024/01/20 04:39:56;;;;;;;4.63;1.70;;;-1.50;52.50;;;;;;6265147;28;20211;-65
2024/01/20 04:42:57;;;;;;;3.10;1.90;;;-1.50;53.00;;;;;;6267827;28;20308;-65
2024/01/20 04:45:58;;;;;;;2.50;1.90;;;-1.60;53.60;;;;;;6273787;28;20280;-65
2024/01/20 04:48:59;;;;;;;2.57;1.50;;;-1.60;53.30;;;;;;6261878;28;20188;-65
2024/01/20 04:52:01;;;;;;;3.07;2.10;;;-1.60;53.00;;;;;;6294599;28;20229;-65
2024/01/20 04:55:02;;;;;;;4.63;2.03;;;-1.60;52.50;;;;;;6277708;28;20207;-65
2024/01/20 04:58:03;;;;;;;3.97;2.07;;;-1.50;51.60;;;;;;6265064;28;20196;-65
2024/01/20 05:01:04;;;;;;;2.97;2.20;;;-1.30;50.90;;;;;;6282749;28;20310;-65
2024/01/20 05:04:05;;;;;;;2.80;1.70;;;-1.30;50.70;;;;;;6279723;28;20191;-65
2024/01/20 05:07:06;;;;;;;2.70;1.93;;;-1.30;51.40;;;;;;6262066;28;20194;-65
2024/01/20 05:10:07;;;;;;;4.83;1.83;;;-1.30;50.90;;;;;;6261054;28;20204;-65
2024/01/20 05:13:08;;;;;;;2.77;1.87;;;-1.30;52.20;;;;;;6252653;28;20199;-65
2024/01/20 05:16:09;;;;;;;4.03;1.87;;;-1.40;52.80;;;;;;6257084;28;20196;-65
2024/01/20 05:19:09;;;;;;;3.13;2.00;;;-1.50;53.00;;;;;;6273477;28;20201;-65
2024/01/20 05:22:10;;;;;;;2.27;1.60;;;-1.50;52.60;;;;;;6267276;28;20258;-65
2024/01/20 05:25:11;;;;;;;3.03;1.80;;;-1.60;53.50;;;;;;6300913;28;20192;-64
2024/01/20 05:28:12;;;;;;;3.20;2.03;;;-1.60;52.30;;;;;;6279722;28;20192;-65
2024/01/20 05:31:12;;;;;;;3.13;1.90;;;-1.50;52.00;;;;;;6266473;28;20286;-65
2024/01/20 05:34:13;;;;;;;3.50;1.90;;;-1.50;52.60;;;;;;6265067;28;20202;-65
2024/01/20 05:37:14;;;;;;;3.67;2.13;;;-1.50;52.10;;;;;;6272781;28;20200;-65
2024/01/20 05:40:15;;;;;;;2.00;1.80;;;-1.60;53.10;;;;;;6268031;28;20221;-65
2024/01/20 05:43:15;;;;;;;3.27;2.40;;;-1.60;53.40;;;;;;6281268;28;20181;-65
2024/01/20 05:46:20;;;;;;;3.43;1.93;;;-1.60;52.90;;;;;;6264379;28;20326;-64
2024/01/20 05:49:20;;;;;;;3.60;2.10;;;-1.60;54.00;;;;;;6300247;28;20185;-64
2024/01/20 05:52:21;;;;;;;3.53;2.20;;;-1.60;54.00;;;;;;6265981;28;20257;-64
2024/01/20 05:55:22;;;;;;;2.47;2.17;;;-1.60;52.90;;;;;;6268002;28;20196;-65
2024/01/20 05:58:22;;;;;;;2.90;1.87;;;-1.60;54.40;;;;;;6257767;28;20187;-65
2024/01/20 06:01:23;;;;;;;3.23;2.27;;;-1.70;54.50;;;;;;6268051;28;20207;-65
2024/01/20 06:04:24;;;;;;;2.73;2.20;;;-1.80;55.00;;;;;;6266405;28;20190;-65
2024/01/20 06:07:24;;;;;;;3.87;1.77;;;-2.00;55.80;;;;;;6261088;28;20200;-64
2024/01/20 06:10:25;;;;;;;4.93;2.40;;;-2.10;56.60;;;;;;6265893;28;20191;-67
2024/01/20 06:13:26;;;;;;;2.90;1.90;;;24.00;50.00;;;;;;6261383;28;20188;-65
2024/01/20 06:16:27;;;;;;;3.97;2.27;;;-2.30;57.60;;;;;;6270793;28;20195;-66
2024/01/20 06:19:27;;;;;;;4.10;1.93;;;-2.30;58.70;;;;;;6278044;28;20191;-66
2024/01/20 06:22:28;;;;;;;4.27;2.27;;;-2.40;58.50;;;;;;6259260;28;20178;-66
2024/01/20 06:25:29;;;;;;;4.47;2.10;;;-2.50;59.20;;;;;;6271574;28;20183;-64
2024/01/20 06:28:30;;;;;;;2.00;1.90;;;-2.50;60.10;;;;;;6267303;28;20270;-63
2024/01/20 06:31:30;;;;;;;2.87;2.10;;;-2.50;60.10;;;;;;6271716;28;20198;-63
2024/01/20 06:34:31;;;;;;;3.33;2.03;;;-2.50;59.40;;;;;;6259382;28;20221;-64
2024/01/20 06:37:32;;;;;;;4.63;2.37;;;-2.50;58.70;;;;;;6265573;28;20217;-64
2024/01/20 06:40:32;;;;;;;3.43;2.50;;;-2.50;57.40;;;;;;6265575;28;20203;-66
2024/01/20 06:43:33;;;;;;;4.93;2.40;;;-2.40;58.20;;;;;;6280184;28;20182;-65
2024/01/20 06:46:33;;;;;;;3.47;2.50;;;-2.40;57.80;;;;;;6270661;28;20193;-63
2024/01/20 06:49:41;;;;;;;2.80;2.20;;;-2.40;56.20;;;;;;6268215;28;20251;-64
2024/01/20 06:52:42;;;;;;;4.67;1.87;;;-2.20;55.40;;;;;;6294694;28;20235;-64
2024/01/20 06:55:43;;;;;;;4.17;2.33;;;-2.10;54.80;;;;;;6282124;28;20187;-64
2024/01/20 06:58:43;;;;;;;2.87;2.07;;;-2.10;56.00;;;;;;6278084;28;20223;-63
2024/01/20 07:01:44;;;;;;;3.20;2.00;;;-2.10;54.60;;;;;;6266720;28;20214;-66
2024/01/20 07:04:44;;;;;;;4.97;2.60;;;-1.90;55.50;;;;;;6286895;28;20191;-63
2024/01/20 07:07:45;;;;;;;3.07;2.20;;;-1.90;55.40;;;;;;6260912;28;20201;-64
2024/01/20 07:10:46;;;;;;;4.13;2.17;;;-1.90;54.20;;;;;;6276685;28;20190;-64
2024/01/20 07:13:47;;;;;;;3.10;2.30;;;-1.80;55.40;;;;;;6268514;28;20215;-68
2024/01/20 07:16:47;;;;;;;5.37;2.70;;;-1.80;55.90;;;;;;6254310;28;20186;-66
2024/01/20 07:19:48;;;;;;;3.97;2.67;;;-1.80;57.20;;;;;;6266857;28;20625;-64
2024/01/20 07:22:49;;;;;;;6.73;3.00;;;-1.80;56.80;;;;;;6284164;28;20646;-63
2024/01/20 07:25:50;;;;;;;5.97;3.20;;;-1.80;56.90;;;;;;6268770;28;20184;-64
2024/01/20 07:28:51;;;;;;;3.87;2.77;;;-1.90;57.80;;;;;;6256136;28;20672;-64
2024/01/20 07:31:51;;;;;;;6.97;2.67;;;-2.10;58.50;;;;;;6262745;28;20197;-65
2024/01/20 07:34:52;;;;;;;5.17;2.40;;;-2.10;59.50;;;;;;6255721;28;20193;-66
2024/01/20 07:37:53;;;;;;;6.50;2.50;;;-2.10;59.30;;;;;;6264269;28;20198;-65
2024/01/20 07:40:53;;;;;;;4.37;3.03;;;-2.20;59.50;;;;;;6267696;28;20246;-66
2024/01/20 07:43:54;;;;;;;5.63;3.33;;;-2.30;60.30;;;;;;6265631;28;20186;-66
2024/01/20 07:46:56;;;;;;;4.03;3.10;;;-2.20;60.60;;;;;;6254993;28;20188;-66
2024/01/20 07:49:57;;;;;;;3.63;2.90;;;-2.20;60.60;;;;;;6273770;28;20214;-65
2024/01/20 07:52:57;;;;;;;3.93;2.60;;;-2.20;60.50;;;;;;6268689;28;20190;-65
2024/01/20 07:55:58;;;;;;;8.40;2.90;;;-2.30;61.00;;;;;;6265746;28;20184;-66
2024/01/20 07:58:59;;;;;;;4.73;2.90;;;-2.20;61.30;;;;;;6274951;28;20365;-66
2024/01/20 08:01:59;;;;;;;2.97;2.67;;;-2.10;61.10;;;;;;6275546;28;20221;-67
2024/01/20 08:05:00;;;;;;;5.83;2.83;;;-2.20;61.40;;;;;;6280873;28;20187;-67
2024/01/20 08:08:01;;;;;;;4.97;2.93;;;-2.20;61.00;;;;;;6256165;28;20189;-65
2024/01/20 08:11:02;;;;;;;7.27;3.33;;;-2.10;61.00;;;;;;6269639;28;20190;-63
2024/01/20 08:14:02;;;;;;;5.17;2.90;;;-2.10;61.30;;;;;;6291079;28;20213;-66
2024/01/20 08:17:03;;;;;;;5.20;2.97;;;-2.10;61.50;;;;;;6256603;28;20195;-65
2024/01/20 08:20:05;;;;;;;6.73;3.07;;;-2.10;61.50;;;;;;6281613;28;20275;-65
2024/01/20 08:23:05;;;;;;;4.63;3.10;;;-2.10;61.10;;;;;;6262673;28;20222;-64
2024/01/20 08:26:06;;;;;;;4.40;3.10;;;-2.10;61.30;;;;;;6256973;28;20186;-64
2024/01/20 08:29:07;;;;;;;4.50;3.03;;;-2.00;61.50;;;;;;6268714;28;20190;-65
2024/01/20 08:32:07;;;;;;;4.30;3.10;;;-1.90;61.80;;;;;;6271375;28;20197;-65
2024/01/20 08:35:11;;;;;;;4.60;2.70;;;-1.90;60.80;;;;;;6264186;28;20190;-65
2024/01/20 08:38:11;;;;;;;3.17;2.63;;;-1.80;59.40;;;;;;6304027;28;20195;-66
2024/01/20 08:41:12;;;;;;;5.90;2.43;;;-1.60;57.20;;;;;;6263825;28;20223;-65
2024/01/20 08:44:13;;;;;;;7.53;2.80;;;-1.50;55.50;;;;;;6280441;28;20192;-66
2024/01/20 08:47:14;;;;;;;4.47;2.27;;;-1.40;55.30;;;;;;6286136;28;20191;-66
2024/01/20 08:50:15;;;;;;;5.43;2.60;;;-1.30;55.30;;;;;;6277155;28;20281;-65
2024/01/20 08:53:16;;;;;;;3.77;2.70;;;-1.10;53.90;;;;;;6272196;28;20220;-65
2024/01/20 08:56:16;;;;;;;5.60;3.27;;;-1.10;54.60;;;;;;6272129;28;20250;-65
2024/01/20 08:59:19;;;;;;;4.53;3.00;;;-1.00;53.60;;;;;;6258022;28;20235;-65
2024/01/20 09:02:20;;;;;;;3.10;2.27;;;-0.90;52.70;;;;;;6270546;28;20221;-65
2024/01/20 09:05:20;;;;;;;3.50;2.30;;;-0.90;52.90;;;;;;6266417;28;20204;-65
2024/01/20 09:08:21;;;;;;;3.97;2.30;;;-0.90;53.50;;;;;;6294434;28;20194;-65
2024/01/20 09:11:22;;;;;;;3.63;2.10;;;-0.80;52.70;;;;;;6264742;28;20280;-65
2024/01/20 09:14:22;;;;;;;5.90;2.30;;;-0.70;52.30;;;;;;6268752;28;20224;-65
2024/01/20 09:17:23;;;;;;;3.13;2.10;;;-0.70;53.20;;;;;;6279106;28;20246;-65
2024/01/20 09:20:24;;;;;;;3.47;2.10;;;-0.70;52.90;;;;;;6263266;28;20215;-65
2024/01/20 09:23:24;;;;;;;4.10;2.67;;;-0.60;52.90;;;;;;6274479;28;20639;-65
2024/01/20 09:26:25;;;;;;;4.73;2.50;;;-0.50;52.80;;;;;;6292079;28;20184;-66
2024/01/20 09:29:26;;;;;;;4.83;2.07;;;-0.40;53.70;;;;;;6289658;28;20184;-65
2024/01/20 09:32:30;;;;;;;4.33;1.70;;;-0.30;51.50;;;;;;6274506;28;20193;-64
2024/01/20 09:35:31;;;;;;;3.23;1.70;;;-0.30;50.80;;;;;;6285545;28;20241;-64
2024/01/20 09:38:32;;;;;;;2.77;1.83;;;-0.10;49.80;;;;;;6270190;28;20200;-64
2024/01/20 09:41:33;;;;;;;3.20;1.80;;;-0.10;49.20;;;;;;6263498;28;20208;-64
2024/01/20 09:44:33;;;;;;;3.40;2.00;;;0.00;49.10;;;;;;6274221;28;20180;-64
2024/01/20 09:47:35;;;;;;;2.70;1.60;;;0.00;49.80;;;;;;6290097;28;20195;-64
2024/01/20 09:50:35;;;;;;;3.33;1.90;;;0.00;49.50;;;;;;6272874;28;20670;-64
2024/01/20 09:53:38;;;;;;;4.03;1.90;;;0.00;49.20;;;;;;6304535;28;20177;-64
2024/01/20 09:56:39;;;;;;;2.20;1.83;;;0.10;49.50;;;;;;6288908;28;20177;-65
2024/01/20 09:59:42;;;;;;;4.93;1.80;;;0.20;49.20;;;;;;6288165;28;20320;-64
2024/01/20 10:02:46;;;;;;;2.97;2.10;;;0.20;49.80;;;;;;6299743;28;20187;-64
2024/01/20 10:05:46;;;;;;;3.80;2.13;;;0.40;48.60;;;;;;6288634;28;20184;-64
2024/01/20 10:08:49;;;;;;;3.13;1.63;;;0.50;48.40;;;;;;6256602;28;20188;-64
2024/01/20 10:11:49;;;;;;;1.93;1.70;;;0.60;48.30;;;;;;6266919;28;20201;-64
2024/01/20 10:14:51;;;;;;;2.47;1.90;;;0.70;47.30;;;;;;6278888;28;20288;-64
2024/01/20 10:17:52;;;;;;;6.40;2.07;;;0.80;47.20;;;;;;6290340;28;20197;-64
2024/01/20 10:21:04;;;;;;;4.90;2.33;;;0.80;47.20;;;;;;6299778;28;20268;-63
2024/01/20 10:24:05;;;;;;;4.27;1.67;;;1.00;47.90;;;;;;6281081;28;20185;-64
2024/01/20 10:27:06;;;;;;;2.17;1.30;;;1.10;46.30;;;;;;6291285;28;20794;-64
2024/01/20 10:30:08;;;;;;;2.10;1.40;;;1.10;45.40;;;;;;6270757;28;20191;-64
2024/01/20 10:33:09;;;;;;;1.40;1.30;;;1.40;44.40;;;;;;6304985;28;20221;-64
2024/01/20 10:36:16;;;;;;;2.80;1.70;;;1.40;44.70;;;;;;6264880;28;20188;-64
2024/01/20 10:39:20;;;;;;;1.30;1.10;;;1.40;44.90;;;;;;6299159;28;20192;-64
2024/01/20 10:42:25;;;;;;;3.00;1.30;;;1.40;45.10;;;;;;6296928;28;20197;-64
2024/01/20 10:45:33;;;;;;;2.67;1.40;;;1.50;43.40;;;;;;6287985;28;20196;-64
2024/01/20 10:48:36;;;;;;;2.57;1.20;;;1.50;44.40;;;;;;6290527;28;20189;-64
2024/01/20 10:51:37;;;;;;;4.47;1.43;;;1.60;44.30;;;;;;6277482;28;20667;-64
2024/01/20 10:54:38;;;;;;;1.43;0.97;;;1.70;42.30;;;;;;6286941;28;20180;-64
2024/01/20 10:57:39;;;;;;;2.37;1.40;;;1.90;41.60;;;;;;6281081;28;20188;-64
2024/01/20 11:00:41;;;;;;;1.33;0.90;;;2.00;40.70;;;;;;6269717;28;20578;-64
2024/01/20 11:03:42;;;;;;;1.13;1.03;;;2.20;39.80;;;;;;6305785;28;20238;-62
2024/01/20 11:06:44;;;;;;;1.20;0.90;;;2.30;39.00;;;;;;6271548;28;20189;-62
2024/01/20 11:09:54;;;;;;;3.13;1.07;;;2.50;39.00;;;;;;6256167;28;20185;-62
2024/01/20 11:13:04;;;;;;;1.30;0.70;;;2.50;38.90;;;;;;6301927;28;20181;-62
2024/01/20 11:16:05;;;;;;;1.10;1.00;;;2.50;38.50;;;;;;6275305;28;20188;-62
2024/01/20 11:19:08;;;;;;;1.20;0.80;;;2.50;37.90;;;;;;6281183;28;20189;-63
2024/01/20 11:22:35;;;;;;;1.90;0.90;;;2.70;38.40;;;;;;6297996;28;20204;-62
2024/01/20 11:25:36;;;;;;;1.50;0.90;;;2.80;37.70;;;;;;6300799;28;20247;-62
2024/01/20 11:28:37;;;;;;;1.10;1.00;;;;;;;;;;6263405;28;20569;-62
2024/01/20 11:31:38;;;;;;;1.13;0.80;;;;;;;;;;6293989;28;20189;-62
2024/01/20 11:34:40;;;;;;;2.93;1.17;;;;;;;;;;6286577;28;20192;-63
2024/01/20 11:37:43;;;;;;;2.07;1.47;;;;;;;;;;6295656;28;20193;-63
2024/01/20 11:40:44;;;;;;;1.33;1.00;;;;;;;;;;6284326;28;20208;-64
2024/01/20 11:43:46;;;;;;;0.80;0.80;;;;;;;;;;6292814;28;20188;-64
2024/01/20 11:46:47;;;;;;;1.27;1.03;;;;;;;;;;6282972;28;20276;-62
2024/01/20 11:49:48;;;;;;;1.10;0.87;;;;;;;;;;6287530;28;20204;-64
2024/01/20 11:52:49;;;;;;;1.90;0.93;;;;;;;;;;6271698;28;20277;-64
2024/01/20 11:55:54;;;;;;;0.77;0.60;;;;;;;;;;6284537;28;20196;-63
2024/01/20 11:58:55;;;;;;;0.90;0.80;;;;;;;;;;6301743;28;20221;-62
2024/01/20 12:01:56;;;;;;;0.80;0.80;;;2.80;37.70;;;;;;6278533;28;20216;-62
2024/01/20 12:04:57;;;;;;;1.60;0.93;;;;;;;;;;6252180;28;20187;-62
2024/01/20 12:07:58;;;;;;;1.77;0.90;;;;;;;;;;6294668;28;20203;-61
2024/01/20 12:11:00;;;;;;;1.47;1.23;;;;;;;;;;6278496;28;20188;-67
2024/01/20 12:14:01;;;;;;;1.20;0.90;;;;;;;;;;6274054;28;20265;-64
2024/01/20 12:17:02;;;;;;;1.20;0.90;;;;;;;;;;6275097;28;20227;-64
2024/01/20 12:20:04;;;;;;;1.77;0.70;;;;;;;;;;6278083;28;20208;-66
2024/01/20 12:23:06;;;;;;;1.10;1.00;;;;;;;;;;6236596;28;20189;-65
2024/01/20 12:26:13;;;;;;;2.07;0.87;;;;;;;;;;6217787;28;20204;-63
2024/01/20 12:29:14;;;;;;;0.90;0.70;;;;;;;;;;6209554;28;20200;-62
2024/01/20 12:32:15;;;;;;;1.43;0.80;;;;;;;;;;6217112;28;20200;-62
2024/01/20 12:35:17;;;;;;;0.70;0.70;;;;;;;;;;6310355;28;20194;-63
2024/01/20 12:38:18;;;;;;;1.30;0.80;;;3.90;36.20;;;;;;6290731;28;20523;-62
2024/01/20 12:41:19;;;;;;;1.80;0.70;;;5.00;32.90;;;;;;6265726;28;20216;-63
2024/01/20 12:44:20;;;;;;;3.23;0.90;;;5.00;33.00;;;;;;6295735;28;20188;-63
2024/01/20 12:47:21;;;;;;;2.90;0.90;;;;;;;;;;6286052;28;20186;-62
2024/01/20 12:50:22;;;;;;;1.53;0.80;;;5.10;32.30;;;;;;6286459;28;20200;-63
2024/01/20 12:53:23;;;;;;;1.40;0.90;;;5.30;32.00;;;;;;6280420;28;20199;-62
2024/01/20 12:56:24;;;;;;;0.70;0.70;;;;;;;;;;6292991;28;20200;-62
2024/01/20 12:59:25;;;;;;;1.80;0.80;;;;;;;;;;6279272;28;20572;-62
2024/01/20 13:02:26;;;;;;;0.43;0.43;;;;;;;;;;6281839;28;20247;-63
2024/01/20 13:05:27;;;;;;;0.87;0.60;;;;;;;;;;6291978;28;20216;-63
2024/01/20 13:08:28;;;;;;;1.07;0.80;;;5.40;33.30;;;;;;6281988;28;20193;-63
2024/01/20 13:11:29;;;;;;;2.70;0.67;;;5.90;30.50;;;;;;6282295;28;20227;-63
2024/01/20 13:14:30;;;;;;;1.70;1.07;;;5.90;29.70;;;;;;6272948;28;20279;-67
2024/01/20 13:17:30;;;;;;;0.50;0.50;;;6.10;30.70;;;;;;6292431;28;20192;-63
2024/01/20 13:20:31;;;;;;;1.47;0.90;;;6.20;30.40;;;;;;6272632;28;20215;-63
2024/01/20 13:23:32;;;;;;;1.73;1.20;;;6.30;31.30;;;;;;6272778;28;20212;-63
2024/01/20 13:26:33;;;;;;;1.50;0.83;;;6.40;30.70;;;;;;6290002;28;20211;-62
2024/01/20 13:29:34;;;;;;;0.77;0.77;;;;;;;;;;6230398;28;20196;-62
2024/01/20 13:32:35;;;;;;;1.57;0.77;;;;;;;;;;6197504;28;20188;-63
2024/01/20 13:35:36;;;;;;;0.70;0.67;;;;;;;;;;6220487;28;20242;-62
2024/01/20 13:38:38;;;;;;;1.20;1.07;;;6.40;30.60;;;;;;6199811;28;20231;-63
2024/01/20 13:41:38;;;;;;;0.70;0.60;;;6.60;29.30;;;;;;6227727;28;20242;-63
2024/01/20 13:44:39;;;;;;;1.57;0.57;;;6.70;28.80;;;;;;6185939;28;20193;-63
2024/01/20 13:47:40;;;;;;;0.70;0.50;;;6.60;29.50;;;;;;6197748;28;20237;-63
2024/01/20 13:50:40;;;;;;;1.03;0.50;;;6.60;27.30;;;;;;6201601;28;20323;-62
2024/01/20 13:53:41;;;;;;;0.93;0.47;;;6.70;27.70;;;;;;6176672;28;21415;-63
2024/01/20 13:56:42;;;;;;;0.60;0.60;;;6.80;27.60;;;;;;6208432;28;20228;-63
2024/01/20 13:59:43;;;;;;;0.87;0.70;;;6.80;27.10;;;;;;6202958;28;20262;-62
2024/01/20 14:02:46;;;;;;;0.73;0.70;;;6.80;27.00;;;;;;6192683;28;20185;-63
2024/01/20 14:05:49;;;;;;;0.90;0.60;;;6.80;27.30;;;;;;6196074;28;20189;-63
2024/01/20 14:08:51;;;;;;;2.10;1.00;;;6.70;26.90;;;;;;6175976;28;20200;-62
2024/01/20 14:11:51;;;;;;;2.77;1.97;;;6.70;27.10;;;;;;6193468;28;20579;-62
2024/01/20 14:14:52;;;;;;;1.90;1.30;;;6.70;27.10;;;;;;6184099;28;20201;-61
2024/01/20 14:17:53;;;;;;;2.87;2.20;;;6.60;27.80;;;;;;6192177;28;20288;-61
2024/01/20 14:20:54;;;;;;;1.77;1.47;;;6.60;27.90;;;;;;6187058;28;20216;-61
2024/01/20 14:23:54;;;;;;;1.83;0.67;;;6.60;28.70;;;;;;6196402;28;20192;-61
2024/01/20 14:26:55;;;;;;;1.97;1.40;;;6.60;27.90;;;;;;6191068;28;20197;-61
2024/01/20 14:29:56;;;;;;;1.37;1.17;;;6.60;27.40;;;;;;6183362;28;20201;-61
2024/01/20 14:32:57;;;;;;;1.57;0.90;;;6.70;28.30;;;;;;6209693;28;20192;-61
2024/01/20 14:35:57;;;;;;;1.43;1.10;;;6.70;28.90;;;;;;6182080;28;20196;-62
2024/01/20 14:38:58;;;;;;;4.40;1.10;;;6.70;29.00;;;;;;6177604;28;21061;-61
2024/01/20 14:41:59;;;;;;;3.37;1.20;;;6.70;29.30;;;;;;6192318;28;20229;-61
2024/01/20 14:45:00;;;;;;;2.00;1.10;;;6.70;29.00;;;;;;6184200;28;20276;-60
2024/01/20 14:48:01;;;;;;;0.60;0.60;;;6.60;29.30;;;;;;6194240;28;20192;-61
2024/01/20 14:51:02;;;;;;;1.17;0.87;;;;;;;;;;6192424;28;21152;-62
2024/01/20 14:54:04;;;;;;;1.67;1.20;;;;;;;;;;6201090;28;20192;-61
2024/01/20 14:57:06;;;;;;;2.87;1.30;;;;;;;;;;6210435;28;20200;-61
2024/01/20 15:00:08;;;;;;;2.33;1.60;;;;;;;;;;6206309;28;20765;-61
2024/01/20 15:03:09;;;;;;;2.40;1.47;;;;;;;;;;6210232;28;20207;-61
2024/01/20 15:06:10;;;;;;;3.23;1.43;;;;;;;;;;6196254;28;20303;-60
2024/01/20 15:09:11;;;;;;;2.40;1.57;;;;;;;;;;6207876;28;20228;-61
2024/01/20 15:12:12;;;;;;;3.50;2.20;;;;;;;;;;6209385;28;20322;-61
2024/01/20 15:15:13;;;;;;;5.60;2.97;;;;;;;;;;6192203;28;20196;-61
2024/01/20 15:18:15;;;;;;;3.97;2.80;;;;;;;;;;6207523;28;20240;-63
2024/01/20 15:21:16;;;;;;;9.47;3.40;;;;;;;;;;6204420;28;20230;-63
2024/01/20 15:24:17;;;;;;;4.40;3.10;;;;;;;;;;6206024;28;20192;-63
2024/01/20 15:27:18;;;;;;;5.00;3.67;;;;;;;;;;6207024;28;20203;-62
2024/01/20 15:30:19;;;;;;;5.23;3.10;;;;;;;;;;6198397;28;20288;-62
2024/01/20 15:33:20;;;;;;;5.93;3.30;;;;;;;;;;6223044;28;20203;-63
2024/01/20 15:36:22;;;;;;;6.53;3.30;;;;;;;;;;6215763;28;20201;-63
2024/01/20 15:39:23;;;;;;;6.97;4.03;;;;;;;;;;6195812;28;20200;-63
2024/01/20 15:42:24;;;;;;;6.20;4.20;;;;;;;;;;6209664;28;20323;-63
2024/01/20 15:45:25;;;;;;;7.53;4.77;;;;;;;;;;6195625;28;20245;-62
2024/01/20 15:48:26;;;;;;;6.20;3.70;;;;;;;;;;6208610;28;20193;-63
2024/01/20 15:51:27;;;;;;;6.03;4.07;;;;;;;;;;6206695;28;20253;-62
2024/01/20 15:54:28;;;;;;;8.83;4.57;;;;;;;;;;6198008;28;20207;-63
2024/01/20 15:57:29;;;;;;;5.13;4.20;;;;;;;;;;6210454;28;21614;-62
2024/01/20 16:00:30;;;;;;;6.17;3.93;;;;;;;;;;6201959;28;20278;-63
2024/01/20 16:03:31;;;;;;;9.63;5.27;;;;;;;;;;6206705;28;20204;-63
2024/01/20 16:06:32;;;;;;;7.30;4.60;;;;;;;;;;6207849;28;20993;-63
2024/01/20 16:09:33;;;;;;;6.30;4.20;;;;;;;;;;6201678;28;20284;-62